Beauval, Canada
Current Conditions -  °F | °C
As of 1:00 PM on Saturday 25 Oct 2014 (Local Time) from CYVT Reporting Station
Broken Clouds Broken Clouds  
Wind Chill: 32°   Ceiling: 2000
Heat Index: 37°   Visibility: 15mi
Dew Point: 28°   Wind: 7mph
Humidity: 70%   Direction: 230°SW
Pressure: 29.97"   Gusts: NA
Location:  55.15°N, 107.62°W
Report Text: CYVT 251900Z 23006KT 210V300 15SM BKN020 03/M02 A2997 RMK SC5 SLP171
Loading
Personal Weather Stations






























Interactive Weather Map
Tropical Storm Tracking
New forecast layout! Learn more

10-Day Weather Forecast

Advertisements
Track Severe Weather on mobile